Time;durP1;ratioP1;P1;durP2;ratioP2;P2;SDS_P1;SDS_P2;PMS_P1;PMS_P2;Temp;Humidity;BMP_temperature;BMP_pressure;BME280_temperature;BME280_humidity;BME280_pressure;Samples;Min_cycle;Max_cycle;Signal;HPM_P1;HPM_P2
2022/07/29 00:00:53;;;;;;;8.93;5.18;;;;;;;20.52;68.14;100538.31;2086051;28;20041;-76
2022/07/29 00:02:17;;;;;;;7.90;5.10;;;;;;;20.51;68.54;100539.22;2071422;28;20490;-78
2022/07/29 00:03:39;;;;;;;11.70;5.85;;;;;;;20.60;68.54;100538.97;2089961;28;20048;-77
2022/07/29 00:05:03;;;;;;;9.43;5.35;;;;;;;20.78;67.85;100542.91;2086101;28;20073;-76
2022/07/29 00:06:24;;;;;;;10.45;6.15;;;;;;;20.93;66.77;100537.97;2083755;28;20087;-76
2022/07/29 00:07:46;;;;;;;9.75;6.00;;;;;;;21.06;66.18;100542.03;2089567;28;20040;-77
2022/07/29 00:09:09;;;;;;;8.13;5.30;;;;;;;21.16;65.47;100542.63;2086376;28;20076;-77
2022/07/29 00:10:30;;;;;;;8.95;5.82;;;;;;;21.26;65.15;100537.88;2099895;28;20385;-77
2022/07/29 00:11:53;;;;;;;10.20;6.00;;;;;;;21.32;64.84;100533.19;2088791;28;20049;-77
2022/07/29 00:13:16;;;;;;;9.25;5.60;;;;;;;21.37;64.38;100538.41;2083144;28;20460;-77
2022/07/29 00:14:37;;;;;;;8.90;5.40;;;;;;;21.41;64.60;100542.72;2092073;28;20056;-77
2022/07/29 00:16:00;;;;;;;9.25;5.45;;;;;;;21.42;64.61;100544.50;2094731;28;20044;-77
2022/07/29 00:17:25;;;;;;;7.78;5.32;;;;;;;21.42;64.66;100542.69;2094419;28;20095;-77
2022/07/29 00:18:46;;;;;;;9.68;5.05;;;;;;;21.36;64.86;100540.19;2092231;28;20036;-77
2022/07/29 00:20:10;;;;;;;10.68;5.30;;;;;;;21.26;65.50;100536.06;2094338;28;20049;-77
2022/07/29 00:21:32;;;;;;;7.30;5.18;;;;;;;21.16;66.36;100536.38;2094341;28;20048;-76
2022/07/29 00:22:54;;;;;;;7.97;4.88;;;;;;;21.16;66.39;100537.28;2097143;28;20051;-77
2022/07/29 00:24:16;;;;;;;7.90;5.13;;;;;;;21.20;66.39;100544.28;2102836;28;20040;-77
2022/07/29 00:25:39;;;;;;;8.88;5.68;;;;;;;21.29;66.32;100535.94;2095784;28;20056;-77
2022/07/29 00:27:00;;;;;;;8.68;5.60;;;;;;;21.36;66.14;100536.63;2094004;28;20074;-77
2022/07/29 00:28:23;;;;;;;6.93;4.88;;;;;;;21.38;65.83;100535.66;2094081;28;20052;-77
2022/07/29 00:29:44;;;;;;;9.73;4.65;;;;;;;21.32;65.85;100533.19;2088866;28;20639;-77
2022/07/29 00:31:07;;;;;;;8.93;5.10;;;;;;;21.32;66.03;100535.88;2093362;28;20036;-77
2022/07/29 00:32:30;;;;;;;9.57;5.35;;;;;;;21.31;66.47;100530.53;2086391;28;20045;-76
2022/07/29 00:33:53;;;;;;;8.10;5.22;;;;;;;21.30;66.81;100539.53;2073687;28;20118;-77
2022/07/29 00:37:11;;;;;;;8.25;5.18;;;;;;;21.25;66.94;100523.56;2061785;28;20050;-77
2022/07/29 00:38:34;;;;;;;8.90;5.88;;;;;;;21.23;67.14;100527.22;2047694;28;20744;-76
2022/07/29 00:39:55;;;;;;;9.98;6.03;;;;;;;21.28;66.86;100536.00;2058147;28;20054;-76
2022/07/29 00:41:19;;;;;;;9.43;5.28;;;;;;;21.33;66.36;100534.91;2047824;29;20082;-77
2022/07/29 00:42:44;;;;;;;13.05;5.80;;;;;;;21.31;66.33;100523.38;2076706;28;20055;-77
2022/07/29 00:44:06;;;;;;;10.07;5.22;;;;;;;21.25;66.57;100537.00;2095246;28;20051;-76
2022/07/29 00:45:30;;;;;;;7.70;5.18;;;;;;;21.06;67.36;100533.09;2092886;28;20106;-76
2022/07/29 00:46:52;;;;;;;12.27;5.30;;;;;;;20.90;68.19;100535.34;2085967;28;20044;-77
2022/07/29 00:48:16;;;;;;;9.45;5.65;;;;;;;20.95;68.46;100530.72;2083279;28;20053;-77
2022/07/29 00:49:39;;;;;;;10.60;5.68;;;;;;;21.05;68.24;100529.53;2090571;28;20132;-77
2022/07/29 00:51:04;;;;;;;9.40;6.00;;;;;;;21.15;68.08;100527.41;2078135;28;20061;-77
2022/07/29 00:52:25;;;;;;;10.65;5.68;;;;;;;21.23;67.99;100535.28;2084101;28;20164;-76
2022/07/29 00:53:50;;;;;;;11.23;5.25;;;;;;;21.23;67.78;100533.47;2090010;28;20121;-77
2022/07/29 00:55:14;;;;;;;10.68;5.85;;;;;;;21.21;67.87;100534.44;2085472;28;20098;-76
2022/07/29 00:56:38;;;;;;;11.80;6.53;;;;;;;21.07;68.19;100538.41;2093882;28;20044;-76
2022/07/29 00:58:01;;;;;;;12.55;5.32;;;;;;;20.96;69.18;100534.28;2094429;28;20068;-76
2022/07/29 00:59:22;;;;;;;10.05;6.00;;;;;;;21.01;69.24;100540.38;2084187;28;20064;-76
2022/07/29 01:00:45;;;;;;;8.88;5.45;;;;;;;21.09;68.74;100532.97;2099433;28;20136;-77
2022/07/29 01:02:06;;;;;;;10.23;5.35;;;;;;;21.16;68.21;100531.03;2096957;28;20439;-77
2022/07/29 01:03:30;;;;;;;10.52;6.00;;;;;;;21.18;67.73;100531.84;2094034;28;20439;-77
2022/07/29 01:04:52;;;;;;;11.23;5.43;;;;;;;21.18;67.63;100531.84;2085923;28;20053;-76
2022/07/29 01:06:15;;;;;;;10.38;6.30;;;;;;;21.19;67.88;100537.19;2081882;28;20037;-77
2022/07/29 01:07:37;;;;;;;11.80;5.97;;;;;;;21.23;67.68;100532.59;2089996;28;20088;-77
2022/07/29 01:08:59;;;;;;;9.30;5.28;;;;;;;21.23;67.93;100532.59;2094076;28;20040;-77
2022/07/29 01:10:23;;;;;;;12.65;6.13;;;;;;;21.25;67.65;100531.63;2094216;28;20048;-77
2022/07/29 01:11:47;;;;;;;12.73;5.70;;;;;;;21.25;67.66;100537.00;2094268;28;20052;-76
2022/07/29 01:13:10;;;;;;;9.32;5.82;;;;;;;21.24;67.74;100543.28;2086049;28;20060;-77
2022/07/29 01:14:31;;;;;;;9.15;5.72;;;;;;;21.27;67.79;100535.09;2083494;28;20056;-76
2022/07/29 01:15:58;;;;;;;9.13;6.03;;;;;;;21.30;67.63;100537.72;2091122;28;20139;-76
2022/07/29 01:17:24;;;;;;;11.80;6.20;;;;;;;21.27;67.54;100529.75;2094143;28;20072;-77
2022/07/29 01:18:51;;;;;;;10.10;5.38;;;;;;;21.19;67.82;100533.63;2090611;28;20056;-76
2022/07/29 01:20:19;;;;;;;11.35;5.90;;;;;;;21.08;68.64;100545.53;2094455;28;20135;-76
2022/07/29 01:21:54;;;;;;;9.77;5.95;;;;;;;21.11;69.00;100531.13;2088124;28;20053;-77
2022/07/29 01:23:59;;;;;;;8.15;5.32;;;;;;;21.19;68.70;100536.31;2087668;28;20497;-77
2022/07/29 01:25:41;;;;;;;11.32;6.05;;;;;;;21.20;68.61;100535.38;2063544;28;20051;-76
2022/07/29 01:27:18;;;;;;;9.77;5.38;;;;;;;21.08;68.99;100536.59;2054733;28;20130;-77
2022/07/29 01:29:22;;;;;;;8.48;5.18;;;;;;;20.91;69.82;100530.88;2090876;28;20048;-77
2022/07/29 01:30:46;;;;;;;10.32;5.40;;;;;;;20.83;70.16;100528.41;2093708;28;20119;-76
2022/07/29 01:32:12;;;;;;;10.10;5.20;;;;;;;20.82;70.74;100525.78;2093968;28;20145;-76
2022/07/29 01:33:50;;;;;;;12.25;6.00;;;;;;;20.89;70.80;100521.97;2086376;28;20141;-77
2022/07/29 01:35:19;;;;;;;9.20;5.75;;;;;;;20.86;70.88;100527.47;2104229;28;20480;-77
2022/07/29 01:36:49;;;;;;;9.65;5.00;;;;;;;20.82;71.16;100521.28;2087996;28;20041;-76
2022/07/29 01:38:18;;;;;;;11.38;6.25;;;;;;;20.88;71.24;100533.63;2090628;28;20162;-76
2022/07/29 01:39:42;;;;;;;9.05;5.47;;;;;;;20.94;70.89;100531.66;2093012;28;20037;-77
2022/07/29 01:41:08;;;;;;;8.48;5.85;;;;;;;20.96;71.09;100524.44;2092238;28;20063;-76
2022/07/29 01:42:40;;;;;;;8.48;6.00;;;;;;;21.04;70.70;100526.88;2086374;28;20052;-76
2022/07/29 01:44:09;;;;;;;10.48;6.78;;;;;;;21.07;70.26;100524.97;2083697;28;20045;-76
2022/07/29 01:45:40;;;;;;;9.60;5.97;;;;;;;21.08;70.17;100521.38;2092197;28;20041;-77
2022/07/29 01:47:08;;;;;;;9.82;6.30;;;;;;;21.12;69.79;100527.53;2094789;28;20543;-76
2022/07/29 01:48:40;;;;;;;11.23;5.68;;;;;;;21.14;69.87;100517.59;2094743;28;20126;-76
2022/07/29 01:50:08;;;;;;;11.90;5.60;;;;;;;21.07;69.71;100513.34;2086744;28;20072;-77
2022/07/29 01:51:35;;;;;;;8.52;5.18;;;;;;;20.96;70.49;100519.06;2091337;28;20139;-77
2022/07/29 01:53:01;;;;;;;10.30;5.85;;;;;;;20.96;70.75;100512.81;2084887;28;20064;-77
2022/07/29 01:54:30;;;;;;;9.30;5.88;;;;;;;20.95;70.62;100513.75;2100434;28;20048;-77
2022/07/29 01:55:53;;;;;;;10.57;5.65;;;;;;;20.92;70.24;100508.47;2088205;28;20049;-77
2022/07/29 01:57:18;;;;;;;10.65;5.55;;;;;;;20.92;70.65;100509.38;2091537;28;20074;-77
2022/07/29 01:58:44;;;;;;;13.02;6.15;;;;;;;20.81;70.76;100518.66;2096615;28;20524;-76
2022/07/29 02:00:07;;;;;;;7.28;4.85;;;;;;;20.66;71.41;100510.16;2086107;28;20076;-77
2022/07/29 02:01:41;;;;;;;8.85;4.85;;;;;;;20.48;72.04;100510.66;2093326;28;20155;-77
2022/07/29 02:03:08;;;;;;;10.73;5.82;;;;;;;20.44;72.46;100514.38;2092980;28;20045;-76
2022/07/29 02:04:33;;;;;;;11.65;5.40;;;;;;;20.51;72.65;100518.66;2084670;28;20135;-77
2022/07/29 02:05:56;;;;;;;8.73;5.05;;;;;;;20.60;72.35;100513.03;2100225;28;20623;-77
2022/07/29 02:07:22;;;;;;;8.50;5.40;;;;;;;20.68;71.93;100513.66;2096472;28;20040;-77
2022/07/29 02:08:46;;;;;;;10.80;6.30;;;;;;;20.76;71.61;100517.91;2086663;28;20080;-76
2022/07/29 02:10:10;;;;;;;9.98;5.68;;;;;;;20.80;71.24;100511.53;2087455;28;20048;-76
2022/07/29 02:11:34;;;;;;;8.32;5.55;;;;;;;20.85;71.20;100512.28;2087373;28;20045;-77
2022/07/29 02:12:58;;;;;;;8.23;5.95;;;;;;;20.86;70.75;100511.34;2095782;28;20083;-76
2022/07/29 02:14:22;;;;;;;10.52;5.75;;;;;;;20.86;70.49;100506.88;2093054;28;20788;-75
2022/07/29 02:15:46;;;;;;;10.00;5.75;;;;;;;20.86;70.57;100514.91;2084233;28;20069;-77
2022/07/29 02:17:13;;;;;;;10.80;6.07;;;;;;;20.89;70.35;100513.94;2101570;28;20060;-76
2022/07/29 02:18:42;;;;;;;8.77;5.75;;;;;;;20.89;70.34;100511.25;2097621;28;20366;-77
2022/07/29 02:20:06;;;;;;;10.32;5.85;;;;;;;20.90;70.43;100519.25;2089675;28;20052;-77
2022/07/29 02:21:30;;;;;;;14.68;7.05;;;;;;;20.91;70.46;100514.78;2095814;28;20052;-77
2022/07/29 02:22:54;;;;;;;12.07;5.72;;;;;;;20.90;70.70;100504.97;2089689;28;20080;-77
2022/07/29 02:24:19;;;;;;;11.82;5.90;;;;;;;20.87;70.97;100503.22;2081037;28;20485;-77
2022/07/29 02:25:43;;;;;;;10.85;5.63;;;;;;;20.86;71.14;100504.19;2096422;28;20048;-77
2022/07/29 02:27:06;;;;;;;11.45;5.75;;;;;;;20.85;71.59;100498.84;2097887;28;20056;-76
2022/07/29 02:28:30;;;;;;;11.30;5.65;;;;;;;20.85;71.64;100496.19;2095244;28;20036;-76
2022/07/29 02:29:53;;;;;;;8.70;6.07;;;;;;;20.86;71.96;100497.94;2087382;28;20057;-77
2022/07/29 02:31:18;;;;;;;9.30;5.13;;;;;;;20.89;71.94;100500.50;2078952;28;20603;-77
2022/07/29 02:32:45;;;;;;;8.13;5.32;;;;;;;20.89;71.98;100485.28;2092996;28;20072;-77
2022/07/29 02:34:10;;;;;;;12.85;5.25;;;;;;;20.85;72.04;100489.00;2083500;28;20516;-77
2022/07/29 02:35:33;;;;;;;7.90;4.60;;;;;;;20.80;72.22;100493.66;2083337;28;20940;-77
2022/07/29 02:36:56;;;;;;;8.52;5.93;;;;;;;20.75;72.42;100489.31;2098795;28;20040;-76
2022/07/29 02:40:16;;;;;;;10.50;4.80;;;;;;;20.72;72.08;100490.31;2072912;28;20045;-76
2022/07/29 02:41:44;;;;;;;12.88;5.63;;;;;;;20.63;72.50;100488.78;2062163;28;20065;-77
2022/07/29 02:43:07;;;;;;;10.75;5.30;;;;;;;20.63;72.70;100487.88;2071075;28;20058;-77
2022/07/29 02:44:32;;;;;;;8.18;4.82;;;;;;;20.67;72.75;100489.56;2078546;28;20060;-76
2022/07/29 02:45:56;;;;;;;9.07;5.53;;;;;;;20.71;72.48;100479.63;2074325;28;20399;-76
2022/07/29 02:47:24;;;;;;;10.80;5.95;;;;;;;20.74;72.35;100485.78;2099518;28;20455;-77
2022/07/29 02:48:55;;;;;;;10.02;5.95;;;;;;;20.74;72.11;100477.72;2089673;28;20095;-77
2022/07/29 02:50:25;;;;;;;10.68;6.32;;;;;;;20.73;72.28;100475.97;2092703;28;20396;-76
2022/07/29 02:51:54;;;;;;;8.68;5.22;;;;;;;20.73;72.37;100477.78;2086527;28;20643;-77
2022/07/29 02:53:20;;;;;;;9.52;5.85;;;;;;;20.74;72.38;100483.09;2085549;28;20065;-77
2022/07/29 02:54:47;;;;;;;11.10;5.65;;;;;;;20.71;72.34;100480.50;2093585;28;20060;-77
2022/07/29 02:56:14;;;;;;;10.50;5.47;;;;;;;20.61;72.40;100482.56;2087266;28;20041;-76
2022/07/29 02:57:42;;;;;;;11.98;5.88;;;;;;;20.60;72.60;100491.56;2086485;28;20144;-77
2022/07/29 02:59:10;;;;;;;8.35;5.28;;;;;;;20.54;72.81;100481.03;2102683;28;20495;-77
2022/07/29 03:00:37;;;;;;;9.57;5.22;;;;;;;20.50;72.98;100481.13;2093851;28;20598;-76
2022/07/29 03:02:01;;;;;;;8.88;5.15;;;;;;;20.54;73.03;100485.50;2087294;28;20075;-77
2022/07/29 03:03:28;;;;;;;11.77;6.20;;;;;;;20.59;72.83;100487.13;2101286;28;20040;-77
2022/07/29 03:04:53;;;;;;;9.82;6.10;;;;;;;20.64;72.43;100485.16;2096604;28;20044;-76
2022/07/29 03:06:17;;;;;;;8.40;5.53;;;;;;;20.65;72.34;100491.41;2087093;28;20450;-76
2022/07/29 03:07:41;;;;;;;9.32;5.65;;;;;;;20.60;72.26;100483.50;2084131;28;20041;-77
2022/07/29 03:09:03;;;;;;;11.02;6.18;;;;;;;20.59;72.41;100484.44;2080976;28;20182;-77
2022/07/29 03:10:27;;;;;;;9.85;5.75;;;;;;;20.62;72.40;100476.28;2092192;28;20511;-77
2022/07/29 03:11:53;;;;;;;10.55;5.45;;;;;;;20.65;72.43;100494.09;2102048;28;20055;-77
2022/07/29 03:13:16;;;;;;;8.00;5.60;;;;;;;20.63;72.57;100494.13;2096247;28;20044;-77
2022/07/29 03:14:39;;;;;;;8.48;5.45;;;;;;;20.62;72.53;100497.75;2086280;28;20416;-77
2022/07/29 03:16:01;;;;;;;11.45;5.28;;;;;;;20.60;72.38;100494.25;2095107;28;20048;-77
2022/07/29 03:17:24;;;;;;;12.70;5.50;;;;;;;20.60;72.42;100494.25;2081221;28;20715;-77
2022/07/29 03:18:47;;;;;;;8.38;5.30;;;;;;;20.59;72.24;100495.16;2094183;28;20078;-76
2022/07/29 03:20:13;;;;;;;11.13;4.97;;;;;;;20.48;72.49;100499.94;2086336;28;20041;-77
2022/07/29 03:21:36;;;;;;;8.00;4.97;;;;;;;20.43;72.52;100492.97;2089800;28;20052;-77
2022/07/29 03:22:58;;;;;;;11.63;5.32;;;;;;;20.43;72.52;100490.28;2086613;28;20058;-76
2022/07/29 03:24:28;;;;;;;10.60;4.85;;;;;;;20.47;71.99;100491.97;2092285;28;20044;-76
2022/07/29 03:25:51;;;;;;;9.07;5.28;;;;;;;20.48;71.95;100494.56;2095911;28;20060;-77
2022/07/29 03:27:14;;;;;;;9.65;5.80;;;;;;;20.51;71.72;100493.63;2078386;28;20053;-76
2022/07/29 03:28:36;;;;;;;13.60;5.97;;;;;;;20.53;71.37;100502.50;2094534;28;20040;-77
2022/07/29 03:29:59;;;;;;;10.15;5.70;;;;;;;20.54;71.37;100505.16;2087820;28;20089;-77
2022/07/29 03:31:20;;;;;;;8.30;5.05;;;;;;;20.50;71.21;100500.78;2099145;28;20067;-77
2022/07/29 03:32:43;;;;;;;10.43;5.30;;;;;;;20.49;71.53;100501.72;2088812;28;20049;-76
2022/07/29 03:34:05;;;;;;;10.07;5.10;;;;;;;20.45;71.51;100496.50;2092050;28;20137;-76
2022/07/29 03:35:31;;;;;;;9.27;4.85;;;;;;;20.45;71.67;100496.50;2094101;28;20052;-77
2022/07/29 03:36:53;;;;;;;9.80;5.45;;;;;;;20.50;71.87;100498.09;2086960;28;20049;-76
2022/07/29 03:38:16;;;;;;;8.85;5.35;;;;;;;20.60;71.98;100496.03;2089963;28;20040;-77
2022/07/29 03:39:42;;;;;;;10.85;4.72;;;;;;;20.67;72.21;100495.81;2083643;28;20098;-76
2022/07/29 03:41:11;;;;;;;8.90;4.72;;;;;;;20.75;72.45;100497.38;2089228;28;20114;-76
2022/07/29 03:42:34;;;;;;;9.05;4.70;;;;;;;20.79;72.32;100499.94;2095341;28;20052;-76
2022/07/29 03:43:59;;;;;;;9.30;4.68;;;;;;;20.86;71.96;100498.81;2093169;28;20120;-77
2022/07/29 03:45:22;;;;;;;9.95;4.50;;;;;;;20.91;71.97;100496.88;2102137;28;20138;-76
2022/07/29 03:46:47;;;;;;;8.02;5.07;;;;;;;20.97;71.69;100498.47;2088965;28;20076;-76
2022/07/29 03:48:12;;;;;;;9.63;4.50;;;;;;;21.03;71.33;100514.38;2092569;28;20068;-77
2022/07/29 03:49:37;;;;;;;11.85;5.10;;;;;;;21.08;71.27;100497.19;2103187;28;20032;-76
2022/07/29 03:51:02;;;;;;;12.18;4.70;;;;;;;21.15;71.11;100500.56;2097456;28;20531;-76
2022/07/29 03:52:25;;;;;;;10.07;4.18;;;;;;;21.24;70.77;100502.13;2103217;28;20051;-77
2022/07/29 03:53:46;;;;;;;9.43;4.15;;;;;;;21.32;70.78;100500.06;2095838;28;20052;-76
2022/07/29 03:55:10;;;;;;;10.30;4.25;;;;;;;21.41;70.41;100502.44;2084434;28;20067;-77
2022/07/29 03:56:38;;;;;;;7.13;4.13;;;;;;;21.51;70.15;100500.34;2100755;28;20171;-76
2022/07/29 03:58:05;;;;;;;8.30;4.20;;;;;;;21.59;70.14;100509.03;2088553;28;20048;-77
2022/07/29 03:59:28;;;;;;;9.80;3.72;;;;;;;21.64;70.02;100504.38;2095018;28;20135;-77
2022/07/29 04:00:50;;;;;;;6.60;3.70;;;;;;;21.70;69.84;100509.53;2087484;28;20049;-76
2022/07/29 04:02:13;;;;;;;9.07;4.15;;;;;;;21.75;69.82;100507.56;2086079;28;20064;-76
2022/07/29 04:03:35;;;;;;;8.30;3.60;;;;;;;21.84;69.33;100499.19;2100147;28;20064;-76
2022/07/29 04:04:57;;;;;;;10.05;3.90;;;;;;;21.95;69.19;100506.88;2088689;28;20049;-76
2022/07/29 04:06:22;;;;;;;9.25;4.28;;;;;;;21.98;68.97;100502.31;2082691;28;20476;-76
2022/07/29 04:07:44;;;;;;;7.18;3.97;;;;;;;22.05;68.62;100502.97;2082668;28;20128;-76
2022/07/29 04:09:07;;;;;;;9.23;3.72;;;;;;;22.14;68.58;100505.31;2083635;28;20052;-76
2022/07/29 04:10:29;;;;;;;5.82;3.00;;;;;;;22.28;68.21;100505.69;2087764;28;20140;-76
2022/07/29 04:11:52;;;;;;;7.03;3.60;;;;;;;22.38;68.08;100504.44;2078157;28;20053;-76
2022/07/29 04:13:14;;;;;;;5.72;3.42;;;;;;;22.50;68.16;100501.28;2075236;28;20037;-76
2022/07/29 04:14:36;;;;;;;6.55;3.42;;;;;;;22.63;67.91;100507.97;2088108;28;20167;-77
2022/07/29 04:15:59;;;;;;;5.88;3.20;;;;;;;22.74;67.76;100510.25;2094629;28;20813;-76
2022/07/29 04:17:22;;;;;;;4.90;2.85;;;;;;;22.85;67.51;100509.84;2101384;28;20113;-76
2022/07/29 04:18:44;;;;;;;5.45;2.95;;;;;;;22.93;67.08;100505.91;2086873;28;20044;-77
2022/07/29 04:20:07;;;;;;;7.50;3.17;;;;;;;23.00;66.95;100502.03;2100064;28;20127;-76
2022/07/29 04:21:30;;;;;;;6.00;2.90;;;;;;;23.15;66.69;100505.06;2097105;28;20500;-76
2022/07/29 04:22:53;;;;;;;6.28;3.30;;;;;;;23.28;66.54;100506.31;2094499;28;20056;-76
2022/07/29 04:24:15;;;;;;;6.47;3.22;;;;;;;23.40;66.03;100505.81;2085810;28;20496;-76
2022/07/29 04:25:41;;;;;;;6.68;2.80;;;;;;;23.53;65.42;100503.53;2099938;28;20575;-75
2022/07/29 04:27:03;;;;;;;9.77;3.30;;;;;;;23.63;65.62;100500.38;2088942;28;20673;-76
2022/07/29 04:28:25;;;;;;;6.07;3.30;;;;;;;23.77;65.35;100500.66;2099688;28;20063;-76
2022/07/29 04:29:49;;;;;;;6.70;3.40;;;;;;;23.91;64.91;100499.19;2088577;28;20099;-76
2022/07/29 04:31:12;;;;;;;7.05;3.10;;;;;;;24.03;64.44;100495.94;2097904;28;20127;-76
2022/07/29 04:32:35;;;;;;;9.65;3.20;;;;;;;24.17;64.04;100507.88;2087613;28;20135;-76
2022/07/29 04:33:58;;;;;;;8.27;3.03;;;;;;;24.31;63.72;100510.00;2091625;28;20044;-77
2022/07/29 04:35:20;;;;;;;4.95;2.75;;;;;;;24.45;63.47;100509.38;2094081;28;20044;-77
2022/07/29 04:36:44;;;;;;;5.53;3.22;;;;;;;24.58;62.81;100513.28;2086044;28;20524;-76
2022/07/29 04:38:06;;;;;;;5.95;3.40;;;;;;;24.70;62.12;100511.81;2089728;28;20090;-76
2022/07/29 04:39:29;;;;;;;9.80;3.67;;;;;;;24.81;61.92;100506.81;2094430;28;20052;-77
2022/07/29 04:40:52;;;;;;;10.88;3.72;;;;;;;24.95;61.67;100507.91;2102632;28;20051;-76
2022/07/29 04:42:15;;;;;;;6.22;3.05;;;;;;;25.12;61.12;100519.75;2096426;28;20516;-76
2022/07/29 04:43:36;;;;;;;5.97;2.80;;;;;;;25.27;60.63;100510.91;2085000;28;20758;-77
2022/07/29 04:44:59;;;;;;;9.02;2.72;;;;;;;25.36;59.91;100507.75;2088690;28;20086;-77
2022/07/29 04:46:21;;;;;;;7.78;2.30;;;;;;;25.31;59.24;100509.81;2092893;28;20068;-77
2022/07/29 04:47:43;;;;;;;3.90;2.17;;;;;;;25.19;59.04;100508.59;2086001;28;20759;-76
2022/07/29 04:49:06;;;;;;;9.60;2.75;;;;;;;25.10;58.95;100506.31;2091677;28;20139;-76
2022/07/29 04:50:29;;;;;;;6.80;2.75;;;;;;;25.25;58.84;100507.41;2082119;28;20051;-77
2022/07/29 04:51:53;;;;;;;3.65;2.17;;;;;;;25.29;57.79;100514.41;2086462;28;20139;-77
2022/07/29 04:53:16;;;;;;;4.43;2.22;;;;;;;25.40;58.09;100515.59;2102078;28;20040;-76
2022/07/29 04:54:37;;;;;;;6.18;3.05;;;;;;;25.70;57.27;100515.06;2088392;28;20061;-76
2022/07/29 04:56:00;;;;;;;7.03;3.10;;;;;;;26.00;56.66;100513.50;2089635;28;20052;-76
2022/07/29 04:57:21;;;;;;;4.53;2.67;;;;;;;26.28;56.44;100515.66;2083300;28;20135;-77
2022/07/29 04:58:44;;;;;;;8.18;2.72;;;;;;;26.54;56.13;100509.72;2094297;28;20291;-77
2022/07/29 05:00:07;;;;;;;7.35;2.40;;;;;;;26.82;55.74;100509.09;2096818;28;20111;-77
2022/07/29 05:01:29;;;;;;;4.80;2.15;;;;;;;27.07;55.28;100505.91;2089989;28;20598;-76
2022/07/29 05:02:51;;;;;;;7.80;2.42;;;;;;;27.31;54.76;100507.19;2083815;28;20040;-76
2022/07/29 05:04:14;;;;;;;4.47;2.50;;;;;;;27.55;54.49;100509.50;2091002;28;20048;-76
2022/07/29 05:05:35;;;;;;;8.80;2.90;;;;;;;27.82;54.18;100506.97;2091386;28;20040;-76
2022/07/29 05:07:00;;;;;;;5.47;2.83;;;;;;;28.10;53.69;100507.03;2091096;28;20060;-77
2022/07/29 05:08:22;;;;;;;4.97;2.60;;;;;;;28.31;53.18;100503.06;2092760;28;20076;-76
2022/07/29 05:09:44;;;;;;;7.53;2.63;;;;;;;28.53;52.79;100511.63;2093511;28;20053;-77
2022/07/29 05:11:06;;;;;;;5.85;2.30;;;;;;;28.74;52.37;100511.22;2077509;28;20123;-77
2022/07/29 05:12:28;;;;;;;6.60;2.30;;;;;;;28.97;51.75;100510.66;2079866;28;20098;-77
2022/07/29 05:13:50;;;;;;;8.27;2.55;;;;;;;29.23;50.88;100512.53;2074472;28;20385;-77
2022/07/29 05:15:13;;;;;;;18.25;5.60;;;;;;;29.43;50.29;100510.38;2085473;28;20417;-76
2022/07/29 05:16:34;;;;;;;8.68;2.92;;;;;;;29.61;49.53;100511.84;2082984;28;20053;-76
2022/07/29 05:17:56;;;;;;;7.70;2.55;;;;;;;29.71;49.11;100505.72;2074698;28;20148;-76
2022/07/29 05:19:19;;;;;;;3.25;2.10;;;;;;;29.74;48.91;100512.78;2091593;28;20037;-76
2022/07/29 05:20:42;;;;;;;14.15;3.97;;;;;;;29.91;48.40;100512.50;2088036;28;20053;-76
2022/07/29 05:22:06;;;;;;;5.13;2.10;;;;;;;30.12;47.71;100506.59;2077475;28;20092;-77
2022/07/29 05:23:28;;;;;;;9.23;2.40;;;;;;;30.34;47.60;100515.00;2099838;28;20052;-77
2022/07/29 05:24:51;;;;;;;4.68;1.70;;;;;;;30.55;47.17;100518.97;2087559;28;20493;-76
2022/07/29 05:26:12;;;;;;;7.50;2.42;;;;;;;30.73;46.40;100516.75;2089419;28;20044;-76
2022/07/29 05:27:35;;;;;;;8.27;2.90;;;;;;;30.88;46.10;100515.66;2083793;28;20059;-76
2022/07/29 05:28:58;;;;;;;7.97;2.42;;;;;;;31.09;46.03;100515.97;2091321;28;20563;-76
2022/07/29 05:30:20;;;;;;;6.20;2.45;;;;;;;31.25;45.49;100511.13;2093107;28;20071;-76
2022/07/29 05:31:43;;;;;;;8.23;2.50;;;;;;;31.37;44.92;100518.41;2085918;28;20048;-76
2022/07/29 05:33:04;;;;;;;5.03;2.00;;;;;;;31.51;44.55;100510.03;2085396;28;20044;-77
2022/07/29 05:34:27;;;;;;;7.40;2.60;;;;;;;31.57;44.08;100512.28;2086719;28;20110;-76
2022/07/29 05:35:50;;;;;;;9.50;2.13;;;;;;;31.54;44.39;100512.56;2084058;28;20076;-76
2022/07/29 05:37:14;;;;;;;6.88;2.08;;;;;;;31.65;43.98;100518.09;2097642;28;20094;-77
2022/07/29 05:38:38;;;;;;;4.82;2.60;;;;;;;31.89;43.82;100518.09;2088025;28;20041;-76
2022/07/29 05:40:00;;;;;;;6.40;2.38;;;;;;;32.15;43.23;100523.44;2091595;28;20080;-75
2022/07/29 05:41:23;;;;;;;5.75;2.28;;;;;;;32.35;42.52;100520.88;2092572;28;20633;-76
2022/07/29 05:42:46;;;;;;;7.35;2.10;;;;;;;32.54;41.81;100531.22;2089844;28;20049;-76
2022/07/29 05:44:09;;;;;;;6.10;2.25;;;;;;;32.75;41.03;100529.53;2089986;28;20123;-76
2022/07/29 05:45:31;;;;;;;7.32;2.50;;;;;;;32.94;40.27;100523.44;2091672;28;20098;-76
2022/07/29 05:46:54;;;;;;;3.45;1.70;;;;;;;33.05;39.70;100530.75;2093937;28;20535;-76
2022/07/29 05:48:17;;;;;;;4.78;2.30;;;;;;;33.13;39.36;100523.66;2085679;28;20049;-77
2022/07/29 05:49:39;;;;;;;7.65;2.05;;;;;;;33.27;39.56;100527.16;2084519;28;20132;-76
2022/07/29 05:51:03;;;;;;;3.78;1.92;;;;;;;33.41;39.38;100526.91;2087851;28;20512;-76
2022/07/29 05:52:27;;;;;;;7.45;2.10;;;;;;;33.49;39.46;100518.88;2085901;28;20056;-76
2022/07/29 05:53:49;;;;;;;7.93;1.98;;;;;;;33.45;39.34;100529.25;2090933;28;20505;-75
2022/07/29 05:55:12;;;;;;;4.57;2.00;;;;;;;33.38;39.06;100533.47;2093805;28;20040;-76
2022/07/29 05:56:34;;;;;;;6.32;2.10;;;;;;;33.26;38.53;100517.22;2093818;28;20870;-76
2022/07/29 05:57:57;;;;;;;5.47;2.95;;;;;;;33.11;38.73;100520.19;2085467;28;20187;-76
2022/07/29 05:59:20;;;;;;;3.55;1.80;;;;;;;33.09;38.48;100524.03;2082852;28;20049;-76
2022/07/29 06:00:43;;;;;;;5.78;2.05;;;;;;;33.05;38.12;100512.47;2088025;28;20115;-76
2022/07/29 06:02:06;;;;;;;6.15;2.42;;;;;;;33.03;37.93;100527.25;2088233;28;20064;-75
2022/07/29 06:03:29;;;;;;;7.15;2.35;;;;;;;32.88;37.88;100523.94;2100129;28;20071;-76
2022/07/29 06:04:52;;;;;;;5.10;2.53;;;;;;;32.77;38.03;100518.44;2093768;28;20044;-76
2022/07/29 06:06:15;;;;;;;3.67;1.77;;;;;;;32.71;38.52;100528.03;2099438;28;20047;-76
2022/07/29 06:07:39;;;;;;;4.18;2.05;;;;;;;32.86;38.23;100531.38;2085442;28;20068;-76
2022/07/29 06:09:02;;;;;;;4.68;2.20;;;;;;;33.03;37.85;100530.00;2089890;28;20084;-76
2022/07/29 06:10:26;;;;;;;8.00;2.10;;;;;;;33.19;37.65;100528.66;2096894;28;20161;-76
2022/07/29 06:11:48;;;;;;;5.93;2.38;;;;;;;33.28;37.36;100521.53;2091588;28;20067;-76
2022/07/29 06:13:11;;;;;;;7.53;2.22;;;;;;;33.40;37.30;100530.63;2079895;28;20044;-76
2022/07/29 06:14:33;;;;;;;5.90;3.13;;;;;;;33.55;36.96;100535.66;2094661;28;20451;-76
2022/07/29 06:15:55;;;;;;;6.15;2.10;;;;;;;33.59;36.71;100528.97;2092594;28;20105;-76
2022/07/29 06:17:18;;;;;;;4.72;2.10;;;;;;;33.75;36.65;100538.63;2093532;28;20044;-76
2022/07/29 06:18:41;;;;;;;6.15;2.03;;;;;;;33.85;36.29;100531.38;2096282;28;20069;-76
2022/07/29 06:20:05;;;;;;;4.80;1.70;;;;;;;33.86;36.16;100531.25;2080064;28;20048;-76
2022/07/29 06:21:26;;;;;;;4.93;1.98;;;;;;;34.00;36.06;100536.41;2091470;28;20052;-77
2022/07/29 06:22:50;;;;;;;5.15;2.25;;;;;;;34.20;36.01;100531.09;2092237;28;20534;-76
2022/07/29 06:24:12;;;;;;;3.42;1.95;;;;;;;34.22;35.72;100540.06;2085521;28;20049;-77
2022/07/29 06:25:36;;;;;;;;;;;;;;;33.91;36.03;100531.72;2084805;28;20064;-77
2022/07/29 06:26:59;;;;;;;6.07;2.00;;;;;;;33.92;36.11;100541.69;2090927;28;19925;-78
2022/07/29 06:28:22;;;;;;;4.90;1.70;;;;;;;33.98;36.19;100543.03;2093488;28;20044;-77
2022/07/29 06:29:44;;;;;;;7.50;2.10;;;;;;;34.05;35.62;100538.78;2093059;28;20153;-78
2022/07/29 06:31:07;;;;;;;4.03;1.80;;;;;;;34.04;35.42;100541.63;2085024;28;20432;-77
2022/07/29 06:32:31;;;;;;;2.97;1.88;;;;;;;34.10;35.43;100541.97;2082818;28;20528;-78
2022/07/29 06:33:52;;;;;;;6.53;1.90;;;;;;;34.21;35.29;100544.69;2082602;28;20033;-78
2022/07/29 06:35:15;;;;;;;5.15;2.20;;;;;;;34.27;35.33;100544.16;2081661;28;20068;-79